createdAt,value
2017-01-28T00:00:31.155Z,1013.79
2017-01-28T00:01:41.407Z,1013.77
2017-01-28T00:02:50.869Z,1013.78
2017-01-28T00:04:01.129Z,1013.73
2017-01-28T00:05:12.083Z,1013.71
2017-01-28T00:06:21.938Z,1013.69
2017-01-28T00:07:32.577Z,1013.75
2017-01-28T00:08:43.218Z,1013.68
2017-01-28T00:09:52.293Z,1013.74
2017-01-28T00:11:03.179Z,1013.69
2017-01-28T00:12:13.447Z,1013.66
2017-01-28T00:13:24.086Z,1013.66
2017-01-28T00:14:34.351Z,1013.64
2017-01-28T00:15:45.009Z,1013.64
2017-01-28T00:16:55.945Z,1013.62
2017-01-28T00:18:05.808Z,1013.55
2017-01-28T00:19:16.070Z,1013.55
2017-01-28T00:20:26.319Z,1013.56
2017-01-28T00:21:36.556Z,1013.53
2017-01-28T00:22:46.724Z,1013.5
2017-01-28T00:23:57.362Z,1013.45
2017-01-28T00:25:07.634Z,1013.47
2017-01-28T00:26:17.494Z,1013.49
2017-01-28T00:27:27.758Z,1013.5
2017-01-28T00:28:38.647Z,1013.5
2017-01-28T00:29:48.894Z,1013.48
2017-01-28T00:30:59.834Z,1013.49
2017-01-28T00:32:09.688Z,1013.44
2017-01-28T00:33:19.950Z,1013.45
2017-01-28T00:34:30.436Z,1013.48
2017-01-28T00:35:40.675Z,1013.51
2017-01-28T00:36:50.906Z,1013.4
2017-01-28T00:38:01.167Z,1013.41
2017-01-28T00:39:12.100Z,1013.4
2017-01-28T00:40:22.996Z,1013.39
2017-01-28T00:41:33.634Z,1013.4
2017-01-28T00:42:43.496Z,1013.39
2017-01-28T00:43:53.737Z,1013.42
2017-01-28T00:45:04.383Z,1013.38
2017-01-28T00:46:15.294Z,1013.38
2017-01-28T00:47:25.175Z,1013.38
2017-01-28T00:48:35.432Z,1013.45
2017-01-28T00:49:45.686Z,1013.43
2017-01-28T00:50:55.974Z,1013.44
2017-01-28T00:52:06.860Z,1013.39
2017-01-28T00:53:16.712Z,1013.4
2017-01-28T00:54:27.381Z,1013.43
2017-01-28T00:55:37.242Z,1013.38
2017-01-28T00:56:47.483Z,1013.38
2017-01-28T00:57:58.500Z,1013.39
2017-01-28T00:59:08.379Z,1013.37
2017-01-28T01:00:18.621Z,1013.34
2017-01-28T01:01:29.268Z,1013.35
2017-01-28T01:02:39.918Z,1013.33
2017-01-28T01:03:49.696Z,1013.32
2017-01-28T01:05:00.321Z,1013.37
2017-01-28T01:06:10.205Z,1013.35
2017-01-28T01:07:20.886Z,1013.35
2017-01-28T01:08:31.137Z,1013.3
2017-01-28T01:09:41.651Z,1013.33
2017-01-28T01:10:52.295Z,1013.31
2017-01-28T01:12:02.542Z,1013.33
2017-01-28T01:13:12.013Z,1013.33
2017-01-28T01:14:21.878Z,1013.32
2017-01-28T01:15:32.794Z,1013.3
2017-01-28T01:16:43.040Z,1013.32
2017-01-28T01:17:53.284Z,1013.27
2017-01-28T01:19:03.592Z,1013.3
2017-01-28T01:20:13.436Z,1013.3
2017-01-28T01:21:23.534Z,1013.27
2017-01-28T01:22:33.401Z,1013.29
2017-01-28T01:23:43.657Z,1013.24
2017-01-28T01:24:54.304Z,1013.23
2017-01-28T01:26:04.949Z,1013.23
2017-01-28T01:27:15.869Z,1013.2
2017-01-28T01:28:26.123Z,1013.2
2017-01-28T01:29:36.753Z,1013.24
2017-01-28T01:30:47.000Z,1013.22
2017-01-28T01:31:57.643Z,1013.22
2017-01-28T01:33:08.523Z,1013.25
2017-01-28T01:34:18.764Z,1013.22
2017-01-28T01:35:29.037Z,1013.26
2017-01-28T01:36:39.668Z,1013.22
2017-01-28T01:37:49.920Z,1013.28
2017-01-28T01:39:00.432Z,1013.27
2017-01-28T01:40:10.291Z,1013.27
2017-01-28T01:41:20.142Z,1013.31
2017-01-28T01:42:30.783Z,1013.27
2017-01-28T01:43:41.025Z,1013.28
2017-01-28T01:44:51.874Z,1013.21
2017-01-28T01:46:02.117Z,1013.24
2017-01-28T01:47:12.367Z,1013.26
2017-01-28T01:48:22.607Z,1013.22
2017-01-28T01:49:32.860Z,1013.22
2017-01-28T01:50:43.362Z,1013.22
2017-01-28T01:51:52.444Z,1013.22
2017-01-28T01:53:03.096Z,1013.24
2017-01-28T01:54:13.800Z,1013.2
2017-01-28T01:55:23.945Z,1013.19
2017-01-28T01:56:34.833Z,1013.2
2017-01-28T01:57:44.693Z,1013.16
2017-01-28T01:58:55.320Z,1013.16
2017-01-28T02:00:05.957Z,1013.14
2017-01-28T02:01:16.208Z,1013.15
2017-01-28T02:02:26.634Z,1013.14
2017-01-28T02:03:36.122Z,1013.13
2017-01-28T02:04:46.765Z,1013.18
2017-01-28T02:05:57.019Z,1013.21
2017-01-28T02:07:07.665Z,1013.16
2017-01-28T02:08:18.146Z,1013.1
2017-01-28T02:09:28.394Z,1013.16
2017-01-28T02:10:39.028Z,1013.15
2017-01-28T02:11:49.276Z,1013.13
2017-01-28T02:12:59.135Z,1013.09
2017-01-28T02:14:09.148Z,1013.07
2017-01-28T02:15:19.005Z,1013.07
2017-01-28T02:16:29.628Z,1013.07
2017-01-28T02:17:39.886Z,1013.09
2017-01-28T02:18:50.138Z,1013.11
2017-01-28T02:20:01.022Z,1013.08
2017-01-28T02:21:11.302Z,1013.14
2017-01-28T02:22:21.171Z,1013.11
2017-01-28T02:23:31.409Z,1013.13
2017-01-28T02:24:41.654Z,1013.11
2017-01-28T02:25:52.158Z,1013.15
2017-01-28T02:27:02.412Z,1013.16
2017-01-28T02:28:13.047Z,1013.14
2017-01-28T02:29:22.907Z,1013.19
2017-01-28T02:30:33.484Z,1013.2
2017-01-28T02:31:44.073Z,1013.27
2017-01-28T02:32:54.757Z,1013.24
2017-01-28T02:34:05.004Z,1013.25
2017-01-28T02:35:14.879Z,1013.24
2017-01-28T02:36:25.535Z,1013.31
2017-01-28T02:37:36.430Z,1013.3
2017-01-28T02:38:46.683Z,1013.37
2017-01-28T02:39:57.363Z,1013.38
2017-01-28T02:41:08.011Z,1013.37
2017-01-28T02:42:17.542Z,1013.41
2017-01-28T02:43:28.428Z,1013.34
2017-01-28T02:44:38.963Z,1013.36
2017-01-28T02:45:49.196Z,1013.33
2017-01-28T02:46:59.450Z,1013.32
2017-01-28T02:48:10.095Z,1013.27
2017-01-28T02:49:20.997Z,1013.27
2017-01-28T02:50:31.258Z,1013.27
2017-01-28T02:51:41.513Z,1013.2
2017-01-28T02:52:51.785Z,1013.2
2017-01-28T02:54:01.636Z,1013.2
2017-01-28T02:55:11.747Z,1013.21
2017-01-28T02:56:21.599Z,1013.23
2017-01-28T02:57:31.843Z,1013.22
2017-01-28T02:58:42.089Z,1013.24
2017-01-28T02:59:52.724Z,1013.3
2017-01-28T03:01:02.854Z,1013.28
2017-01-28T03:02:13.119Z,1013.29
2017-01-28T03:03:23.761Z,1013.27
2017-01-28T03:04:34.013Z,1013.31
2017-01-28T03:05:44.657Z,1013.27
2017-01-28T03:06:54.376Z,1013.23
2017-01-28T03:08:05.007Z,1013.24
2017-01-28T03:09:15.258Z,1013.27
2017-01-28T03:10:25.911Z,1013.23
2017-01-28T03:11:36.158Z,1013.23
2017-01-28T03:12:46.261Z,1013.23
2017-01-28T03:13:56.908Z,1013.24
2017-01-28T03:15:07.547Z,1013.23
2017-01-28T03:16:17.417Z,1013.25
2017-01-28T03:17:28.332Z,1013.25
2017-01-28T03:18:38.050Z,1013.24
2017-01-28T03:19:48.320Z,1013.23
2017-01-28T03:20:58.973Z,1013.24
2017-01-28T03:22:09.622Z,1013.15
2017-01-28T03:23:20.264Z,1013.17
2017-01-28T03:24:30.792Z,1013.2
2017-01-28T03:25:41.036Z,1013.25
2017-01-28T03:26:51.677Z,1013.19
2017-01-28T03:28:01.928Z,1013.2
2017-01-28T03:29:12.169Z,1013.21
2017-01-28T03:30:22.676Z,1013.22
2017-01-28T03:31:32.935Z,1013.22
2017-01-28T03:32:43.585Z,1013.21
2017-01-28T03:33:53.821Z,1013.22
2017-01-28T03:35:04.094Z,1013.21
2017-01-28T03:36:14.227Z,1013.19
2017-01-28T03:37:24.879Z,1013.18
2017-01-28T03:38:35.552Z,1013.23
2017-01-28T03:39:45.793Z,1013.22
2017-01-28T03:40:55.653Z,1013.23
2017-01-28T03:42:06.540Z,1013.18
2017-01-28T03:43:16.795Z,1013.18
2017-01-28T03:44:27.439Z,1013.2
2017-01-28T03:45:38.090Z,1013.19
2017-01-28T03:46:48.762Z,1013.16
2017-01-28T03:47:59.642Z,1013.21
2017-01-28T03:49:09.107Z,1013.19
2017-01-28T03:50:19.359Z,1013.21
2017-01-28T03:51:29.999Z,1013.22
2017-01-28T03:52:40.244Z,1013.23
2017-01-28T03:53:51.181Z,1013.25
2017-01-28T03:55:01.820Z,1013.23
2017-01-28T03:56:12.066Z,1013.28
2017-01-28T03:57:21.920Z,1013.29
2017-01-28T03:58:31.378Z,1013.3
2017-01-28T03:59:41.893Z,1013.31
2017-01-28T04:00:52.535Z,1013.34
2017-01-28T04:02:02.785Z,1013.34
2017-01-28T04:03:13.437Z,1013.34
2017-01-28T04:04:24.066Z,1013.33
2017-01-28T04:05:35.003Z,1013.36
2017-01-28T04:06:45.257Z,1013.34
2017-01-28T04:07:55.405Z,1013.32
2017-01-28T04:09:06.061Z,1013.36
2017-01-28T04:10:16.308Z,1013.36
2017-01-28T04:11:27.229Z,1013.36
2017-01-28T04:12:36.718Z,1013.35
2017-01-28T04:13:46.955Z,1013.36
2017-01-28T04:14:57.597Z,1013.34
2017-01-28T04:16:07.077Z,1013.31
2017-01-28T04:17:17.085Z,1013.32
2017-01-28T04:18:27.341Z,1013.34
2017-01-28T04:19:37.976Z,1013.36
2017-01-28T04:20:47.839Z,1013.35
2017-01-28T04:21:58.107Z,1013.33
2017-01-28T04:23:08.992Z,1013.35
2017-01-28T04:24:18.841Z,1013.37
2017-01-28T04:25:29.481Z,1013.41
2017-01-28T04:26:40.117Z,1013.39
2017-01-28T04:27:50.769Z,1013.4
2017-01-28T04:29:01.663Z,1013.41
2017-01-28T04:30:11.515Z,1013.42
2017-01-28T04:31:21.773Z,1013.43
2017-01-28T04:32:32.412Z,1013.37
2017-01-28T04:33:43.075Z,1013.38
2017-01-28T04:34:52.804Z,1013.4
2017-01-28T04:36:03.448Z,1013.37
2017-01-28T04:37:13.709Z,1013.4
2017-01-28T04:38:24.366Z,1013.34
2017-01-28T04:39:34.613Z,1013.34
2017-01-28T04:40:45.499Z,1013.38
2017-01-28T04:41:55.745Z,1013.35
2017-01-28T04:43:06.010Z,1013.34
2017-01-28T04:44:16.631Z,1013.37
2017-01-28T04:45:26.486Z,1013.36
2017-01-28T04:46:36.982Z,1013.36
2017-01-28T04:47:47.244Z,1013.34
2017-01-28T04:48:56.703Z,1013.39
2017-01-28T04:50:07.344Z,1013.39
2017-01-28T04:51:17.988Z,1013.41
2017-01-28T04:52:28.923Z,1013.39
2017-01-28T04:53:39.196Z,1013.29
2017-01-28T04:54:49.835Z,1013.39
2017-01-28T04:55:59.677Z,1013.32
2017-01-28T04:57:09.537Z,1013.33
2017-01-28T04:58:20.473Z,1013.33
2017-01-28T04:59:31.104Z,1013.27
2017-01-28T05:00:41.336Z,1013.27
2017-01-28T05:01:50.418Z,1013.22
2017-01-28T05:03:01.090Z,1013.19
2017-01-28T05:04:11.973Z,1013.16
2017-01-28T05:05:22.233Z,1013.15
2017-01-28T05:06:32.478Z,1013.21
2017-01-28T05:07:43.104Z,1013.12
2017-01-28T05:08:53.343Z,1013.17
2017-01-28T05:10:04.232Z,1013.14
2017-01-28T05:11:14.482Z,1013.09
2017-01-28T05:12:25.126Z,1013.14
2017-01-28T05:13:34.975Z,1013.09
2017-01-28T05:14:45.611Z,1013.02
2017-01-28T05:15:56.545Z,1013.09
2017-01-28T05:17:07.181Z,1013.09
2017-01-28T05:18:17.424Z,1013.11
2017-01-28T05:19:28.104Z,1013.12
2017-01-28T05:20:38.736Z,1013.16
2017-01-28T05:21:49.623Z,1013.15
2017-01-28T05:23:00.259Z,1013.11
2017-01-28T05:24:10.132Z,1013.13
2017-01-28T05:25:19.981Z,1013.17
2017-01-28T05:26:29.834Z,1013.15
2017-01-28T05:27:39.988Z,1013.14
2017-01-28T05:28:50.231Z,1013.16
2017-01-28T05:30:00.493Z,1013.19
2017-01-28T05:31:11.138Z,1013.16
2017-01-28T05:32:20.593Z,1013.16
2017-01-28T05:33:31.551Z,1013.27
2017-01-28T05:34:41.821Z,1013.21
2017-01-28T05:35:52.073Z,1013.23
2017-01-28T05:37:02.710Z,1013.24
2017-01-28T05:38:12.565Z,1013.23
2017-01-28T05:39:23.468Z,1013.22
2017-01-28T05:40:34.104Z,1013.18
2017-01-28T05:41:44.776Z,1013.23
2017-01-28T05:42:55.028Z,1013.28
2017-01-28T05:44:05.280Z,1013.25
2017-01-28T05:45:15.770Z,1013.26
2017-01-28T05:46:26.402Z,1013.29
2017-01-28T05:47:37.031Z,1013.29
2017-01-28T05:48:47.669Z,1013.3
2017-01-28T05:49:57.926Z,1013.27
2017-01-28T05:51:08.469Z,1013.26
2017-01-28T05:52:18.709Z,1013.26
2017-01-28T05:53:29.363Z,1013.32
2017-01-28T05:54:40.018Z,1013.27
2017-01-28T05:55:50.674Z,1013.29
2017-01-28T05:57:00.794Z,1013.27
2017-01-28T05:58:10.658Z,1013.29
2017-01-28T05:59:20.120Z,1013.29
2017-01-28T06:00:30.762Z,1013.27
2017-01-28T06:01:41.014Z,1013.27
2017-01-28T06:02:51.800Z,1013.28
2017-01-28T06:04:02.447Z,1013.23
2017-01-28T06:05:12.691Z,1013.16
2017-01-28T06:06:22.946Z,1013.2
2017-01-28T06:07:33.219Z,1013.23
2017-01-28T06:08:44.114Z,1013.21
2017-01-28T06:09:53.977Z,1013.2
2017-01-28T06:11:04.240Z,1013.21
2017-01-28T06:12:14.871Z,1013.2
2017-01-28T06:13:25.505Z,1013.21
2017-01-28T06:14:36.404Z,1013.22
2017-01-28T06:15:46.255Z,1013.2
2017-01-28T06:16:56.140Z,1013.19
2017-01-28T06:18:06.395Z,1013.15
2017-01-28T06:19:17.044Z,1013.12
2017-01-28T06:20:27.914Z,1013.06
2017-01-28T06:21:38.191Z,1012.99
2017-01-28T06:22:48.440Z,1013
2017-01-28T06:23:58.332Z,1012.96
2017-01-28T06:25:08.578Z,1012.95
2017-01-28T06:26:19.509Z,1013
2017-01-28T06:27:30.148Z,1012.95
2017-01-28T06:28:40.430Z,1012.93
2017-01-28T06:29:51.078Z,1012.93
2017-01-28T06:31:00.940Z,1012.91
2017-01-28T06:32:11.768Z,1012.96
2017-01-28T06:33:22.009Z,1012.97
2017-01-28T06:34:32.249Z,1013
2017-01-28T06:35:42.495Z,1013
2017-01-28T06:36:52.349Z,1013.05
2017-01-28T06:38:03.228Z,1013.01
2017-01-28T06:39:13.507Z,1013.02
2017-01-28T06:40:23.750Z,1013.06
2017-01-28T06:41:34.001Z,1013.06
2017-01-28T06:42:43.474Z,1013.07
2017-01-28T06:43:53.975Z,1013.06
2017-01-28T06:45:04.623Z,1013.1
2017-01-28T06:46:15.272Z,1013.08
2017-01-28T06:47:25.542Z,1013.13
2017-01-28T06:48:35.421Z,1013.08
2017-01-28T06:49:45.821Z,1013.14
2017-01-28T06:50:56.096Z,1013.11
2017-01-28T06:52:05.965Z,1013.14
2017-01-28T06:53:16.608Z,1013.15
2017-01-28T06:54:27.242Z,1013.13
2017-01-28T06:55:38.184Z,1013.17
2017-01-28T06:56:48.826Z,1013.16
2017-01-28T06:57:59.075Z,1013.12
2017-01-28T06:59:09.743Z,1013.16
2017-01-28T07:00:20.390Z,1013.2
2017-01-28T07:01:30.987Z,1013.14
2017-01-28T07:02:40.924Z,1013.16
2017-01-28T07:03:51.468Z,1013.16
2017-01-28T07:05:01.708Z,1013.2
2017-01-28T07:06:12.342Z,1013.17
2017-01-28T07:07:22.447Z,1013.18
2017-01-28T07:08:33.094Z,1013.15
2017-01-28T07:09:42.948Z,1013.15
2017-01-28T07:10:52.813Z,1013.14
2017-01-28T07:12:02.676Z,1013.16
2017-01-28T07:13:12.847Z,1013.15
2017-01-28T07:14:23.095Z,1013.14
2017-01-28T07:15:33.752Z,1013.09
2017-01-28T07:16:44.008Z,1013.07
2017-01-28T07:17:54.664Z,1013.08
2017-01-28T07:19:05.565Z,1013.09
2017-01-28T07:20:16.216Z,1013.11
2017-01-28T07:21:26.465Z,1013.16
2017-01-28T07:22:36.323Z,1013.15
2017-01-28T07:23:46.964Z,1013.21
2017-01-28T07:24:57.901Z,1013.2
2017-01-28T07:26:08.526Z,1013.19
2017-01-28T07:27:18.395Z,1013.24
2017-01-28T07:28:29.050Z,1013.23
2017-01-28T07:29:38.915Z,1013.26
2017-01-28T07:30:49.789Z,1013.29
2017-01-28T07:31:59.647Z,1013.27
2017-01-28T07:33:09.550Z,1013.26
2017-01-28T07:34:19.832Z,1013.28
2017-01-28T07:35:29.691Z,1013.26
2017-01-28T07:36:40.192Z,1013.31
2017-01-28T07:37:51.756Z,1013.32
2017-01-28T07:39:02.031Z,1013.31
2017-01-28T07:40:12.285Z,1013.34
2017-01-28T07:41:22.976Z,1013.38
2017-01-28T07:42:33.477Z,1013.43
2017-01-28T07:43:43.361Z,1013.48
2017-01-28T07:44:53.601Z,1013.48
2017-01-28T07:46:03.448Z,1013.52
2017-01-28T07:47:14.086Z,1013.54
2017-01-28T07:48:24.971Z,1013.57
2017-01-28T07:49:35.607Z,1013.57
2017-01-28T07:50:45.851Z,1013.59
2017-01-28T07:51:56.114Z,1013.6
2017-01-28T07:53:05.610Z,1013.6
2017-01-28T07:54:16.107Z,1013.64
2017-01-28T07:55:26.779Z,1013.61
2017-01-28T07:56:37.431Z,1013.61
2017-01-28T07:57:47.299Z,1013.62
2017-01-28T07:58:57.567Z,1013.56
2017-01-28T08:00:07.730Z,1013.58
2017-01-28T08:01:17.996Z,1013.52
2017-01-28T08:02:28.254Z,1013.53
2017-01-28T08:03:38.139Z,1013.55
2017-01-28T08:04:48.394Z,1013.53
2017-01-28T08:05:59.281Z,1013.49
2017-01-28T08:07:09.932Z,1013.5
2017-01-28T08:08:20.196Z,1013.51
2017-01-28T08:09:30.837Z,1013.5
2017-01-28T08:10:40.700Z,1013.53
2017-01-28T08:11:51.213Z,1013.53
2017-01-28T08:13:01.838Z,1013.55
2017-01-28T08:14:12.086Z,1013.53
2017-01-28T08:15:21.948Z,1013.57
2017-01-28T08:16:31.821Z,1013.58
2017-01-28T08:17:42.727Z,1013.53
2017-01-28T08:18:53.389Z,1013.56
2017-01-28T08:20:04.054Z,1013.55
2017-01-28T08:21:14.337Z,1013.56
2017-01-28T08:22:24.606Z,1013.57
2017-01-28T08:23:33.938Z,1013.67
2017-01-28T08:24:44.229Z,1013.72
2017-01-28T08:25:54.868Z,1013.76
2017-01-28T08:27:05.505Z,1013.75
2017-01-28T08:28:16.217Z,1013.75
2017-01-28T08:29:27.128Z,1013.93
2017-01-28T08:30:37.774Z,1013.86
2017-01-28T08:31:47.248Z,1013.83
2017-01-28T08:32:57.491Z,1013.82
2017-01-28T08:34:07.743Z,1013.8
2017-01-28T08:35:17.064Z,1013.81
2017-01-28T08:36:26.944Z,1013.79
2017-01-28T08:37:36.824Z,1013.8
2017-01-28T08:38:47.090Z,1013.83
2017-01-28T08:39:56.987Z,1013.76
2017-01-28T08:41:08.179Z,1013.75
2017-01-28T08:42:18.048Z,1013.75
2017-01-28T08:43:27.905Z,1013.72
2017-01-28T08:44:38.160Z,1013.69
2017-01-28T08:45:48.869Z,1013.7
2017-01-28T08:46:59.366Z,1013.67
2017-01-28T08:48:09.129Z,1013.71
2017-01-28T08:49:19.789Z,1013.74
2017-01-28T08:50:30.039Z,1013.72
2017-01-28T08:51:40.285Z,1013.74
2017-01-28T08:52:51.183Z,1013.64
2017-01-28T08:54:01.474Z,1013.71
2017-01-28T08:55:10.990Z,1013.74
2017-01-28T08:56:21.639Z,1013.68
2017-01-28T08:57:31.975Z,1013.73
2017-01-28T08:58:42.910Z,1013.66
2017-01-28T08:59:53.178Z,1013.62
2017-01-28T09:01:03.438Z,1013.63
2017-01-28T09:02:13.727Z,1013.66
2017-01-28T09:03:24.384Z,1013.62
2017-01-28T09:04:34.506Z,1013.61
2017-01-28T09:05:44.788Z,1013.59
2017-01-28T09:06:55.488Z,1013.6
2017-01-28T09:08:06.152Z,1013.56
2017-01-28T09:09:16.792Z,1013.55
2017-01-28T09:10:27.207Z,1013.56
2017-01-28T09:11:37.463Z,1013.58
2017-01-28T09:12:47.723Z,1013.59
2017-01-28T09:13:57.969Z,1013.6
2017-01-28T09:15:08.238Z,1013.63
2017-01-28T09:16:19.123Z,1013.62
2017-01-28T09:17:29.771Z,1013.62
2017-01-28T09:18:40.027Z,1013.6
2017-01-28T09:19:50.296Z,1013.6
2017-01-28T09:21:00.939Z,1013.57
2017-01-28T09:22:11.841Z,1013.57
2017-01-28T09:23:22.101Z,1013.59
2017-01-28T09:24:32.774Z,1013.54
2017-01-28T09:25:43.119Z,1013.56
2017-01-28T09:26:53.962Z,1013.54
2017-01-28T09:28:04.549Z,1013.55
2017-01-28T09:29:14.448Z,1013.53
2017-01-28T09:30:24.387Z,1013.59
2017-01-28T09:31:34.648Z,1013.55
2017-01-28T09:32:44.919Z,1013.58
2017-01-28T09:33:55.127Z,1013.56
2017-01-28T09:35:04.989Z,1013.53
2017-01-28T09:36:15.626Z,1013.56
2017-01-28T09:37:25.495Z,1013.53
2017-01-28T09:38:35.735Z,1013.54
2017-01-28T09:39:46.310Z,1013.55
2017-01-28T09:40:56.946Z,1013.5
2017-01-28T09:42:07.222Z,1013.48
2017-01-28T09:43:17.885Z,1013.54
2017-01-28T09:44:28.879Z,1013.55
2017-01-28T09:45:39.765Z,1013.49
2017-01-28T09:46:50.416Z,1013.51
2017-01-28T09:48:01.092Z,1013.52
2017-01-28T09:49:10.987Z,1013.52
2017-01-28T09:50:21.630Z,1013.55
2017-01-28T09:51:32.131Z,1013.58
2017-01-28T09:52:42.019Z,1013.57
2017-01-28T09:53:52.680Z,1013.56
2017-01-28T09:55:02.948Z,1013.58
2017-01-28T09:56:13.193Z,1013.6
2017-01-28T09:57:23.767Z,1013.6
2017-01-28T09:58:34.481Z,1013.58
2017-01-28T09:59:45.210Z,1013.56
2017-01-28T10:00:55.508Z,1013.59
2017-01-28T10:02:06.147Z,1013.61
2017-01-28T10:03:16.169Z,1013.58
2017-01-28T10:04:26.824Z,1013.6
2017-01-28T10:05:37.480Z,1013.61
2017-01-28T10:06:48.158Z,1013.63
2017-01-28T10:07:58.828Z,1013.56
2017-01-28T10:09:09.338Z,1013.7
2017-01-28T10:10:19.994Z,1013.55
2017-01-28T10:11:30.631Z,1013.62
2017-01-28T10:12:41.270Z,1013.62
2017-01-28T10:13:51.531Z,1013.65
2017-01-28T10:15:02.110Z,1013.66
2017-01-28T10:16:12.382Z,1013.64
2017-01-28T10:17:23.042Z,1013.62
2017-01-28T10:18:33.319Z,1013.59
2017-01-28T10:19:43.565Z,1013.58
2017-01-28T10:20:54.163Z,1013.67
2017-01-28T10:22:04.416Z,1013.62
2017-01-28T10:23:14.689Z,1013.62
2017-01-28T10:24:24.967Z,1013.64
2017-01-28T10:25:34.844Z,1013.62
2017-01-28T10:26:46.055Z,1013.59
2017-01-28T10:27:56.697Z,1013.62
2017-01-28T10:29:06.984Z,1013.64
2017-01-28T10:30:17.242Z,1013.62
2017-01-28T10:31:27.508Z,1013.61
2017-01-28T10:32:38.320Z,1013.65
2017-01-28T10:33:48.969Z,1013.63
2017-01-28T10:34:59.295Z,1013.6
2017-01-28T10:36:09.562Z,1013.62
2017-01-28T10:37:19.441Z,1013.6
2017-01-28T10:38:30.382Z,1013.59
2017-01-28T10:39:41.044Z,1013.62
2017-01-28T10:40:50.915Z,1013.61
2017-01-28T10:42:00.418Z,1013.63
2017-01-28T10:43:11.172Z,1013.6
2017-01-28T10:44:21.704Z,1013.61
2017-01-28T10:45:32.360Z,1013.68
2017-01-28T10:46:42.604Z,1013.72
2017-01-28T10:47:52.461Z,1013.68
2017-01-28T10:49:02.728Z,1013.69
2017-01-28T10:50:13.158Z,1013.64
2017-01-28T10:51:23.817Z,1013.67
2017-01-28T10:52:34.493Z,1013.71
2017-01-28T10:53:44.392Z,1013.62
2017-01-28T10:54:55.087Z,1013.63
2017-01-28T10:56:05.217Z,1013.61
2017-01-28T10:57:15.072Z,1013.67
2017-01-28T10:58:25.717Z,1013.6
2017-01-28T10:59:36.080Z,1013.59
2017-01-28T11:00:46.737Z,1013.57
2017-01-28T11:01:57.266Z,1013.56
2017-01-28T11:03:07.536Z,1013.52
2017-01-28T11:04:18.170Z,1013.5
2017-01-28T11:05:28.829Z,1013.5
2017-01-28T11:06:38.725Z,1013.46
2017-01-28T11:07:49.626Z,1013.43
2017-01-28T11:08:59.117Z,1013.43
2017-01-28T11:10:09.385Z,1013.45
2017-01-28T11:11:19.681Z,1013.46
2017-01-28T11:12:29.983Z,1013.36
2017-01-28T11:13:40.471Z,1013.38
2017-01-28T11:14:51.151Z,1013.39
2017-01-28T11:16:01.410Z,1013.37
2017-01-28T11:17:11.513Z,1013.38
2017-01-28T11:18:21.412Z,1013.37
2017-01-28T11:19:31.688Z,1013.35
2017-01-28T11:20:42.356Z,1013.33
2017-01-28T11:21:52.660Z,1013.28
2017-01-28T11:23:03.325Z,1013.29
2017-01-28T11:24:13.583Z,1013.24
2017-01-28T11:25:23.828Z,1013.25
2017-01-28T11:26:34.468Z,1013.22
2017-01-28T11:27:44.356Z,1013.25
2017-01-28T11:28:54.282Z,1013.28
2017-01-28T11:30:04.950Z,1013.21
2017-01-28T11:31:15.864Z,1013.2
2017-01-28T11:32:25.359Z,1013.24
2017-01-28T11:33:36.012Z,1013.14
2017-01-28T11:34:46.258Z,1013.12
2017-01-28T11:35:56.537Z,1013.15
2017-01-28T11:37:07.065Z,1013.1
2017-01-28T11:38:17.347Z,1013.1
2017-01-28T11:39:27.621Z,1013.08
2017-01-28T11:40:38.292Z,1013.08
2017-01-28T11:41:48.575Z,1013.09
2017-01-28T11:42:59.081Z,1013.03
2017-01-28T11:44:08.947Z,1013.06
2017-01-28T11:45:18.454Z,1013
2017-01-28T11:46:29.121Z,1012.97
2017-01-28T11:47:39.818Z,1012.97
2017-01-28T11:48:50.772Z,1012.95
2017-01-28T11:50:01.051Z,1012.93
2017-01-28T11:51:10.548Z,1012.93
2017-01-28T11:52:20.822Z,1012.87
2017-01-28T11:53:30.685Z,1012.85
2017-01-28T11:54:41.194Z,1012.86
2017-01-28T11:55:51.451Z,1012.82
2017-01-28T11:57:01.705Z,1012.79
2017-01-28T11:58:12.359Z,1012.74
2017-01-28T11:59:22.605Z,1012.81
2017-01-28T12:00:33.114Z,1012.72
2017-01-28T12:01:43.001Z,1012.78
2017-01-28T12:02:52.489Z,1012.74
2017-01-28T12:04:03.135Z,1012.72
2017-01-28T12:05:13.387Z,1012.71
2017-01-28T12:06:23.924Z,1012.74
2017-01-28T12:07:34.577Z,1012.65
2017-01-28T12:08:45.228Z,1012.65
2017-01-28T12:09:55.479Z,1012.66
2017-01-28T12:11:05.345Z,1012.7
2017-01-28T12:12:15.927Z,1012.68
2017-01-28T12:13:26.572Z,1012.7
2017-01-28T12:14:37.227Z,1012.63
2017-01-28T12:15:47.477Z,1012.61
2017-01-28T12:16:57.805Z,1012.6
2017-01-28T12:18:07.930Z,1012.58
2017-01-28T12:19:18.199Z,1012.54
2017-01-28T12:20:28.049Z,1012.6
2017-01-28T12:21:38.300Z,1012.58
2017-01-28T12:22:48.571Z,1012.53
2017-01-28T12:23:59.101Z,1012.53
2017-01-28T12:25:08.966Z,1012.5
2017-01-28T12:26:19.122Z,1012.53
2017-01-28T12:27:29.764Z,1012.53
2017-01-28T12:28:40.467Z,1012.49
2017-01-28T12:29:50.996Z,1012.5
2017-01-28T12:31:01.258Z,1012.46
2017-01-28T12:32:11.127Z,1012.43
2017-01-28T12:33:21.001Z,1012.38
2017-01-28T12:34:31.642Z,1012.39
2017-01-28T12:35:42.565Z,1012.31
2017-01-28T12:36:52.905Z,1012.32
2017-01-28T12:38:03.266Z,1012.33
2017-01-28T12:39:13.510Z,1012.31
2017-01-28T12:40:23.836Z,1012.26
2017-01-28T12:41:34.360Z,1012.26
2017-01-28T12:42:44.610Z,1012.28
2017-01-28T12:43:54.857Z,1012.29
2017-01-28T12:45:04.724Z,1012.27
2017-01-28T12:46:14.597Z,1012.27
2017-01-28T12:47:25.393Z,1012.35
2017-01-28T12:48:35.660Z,1012.33
2017-01-28T12:49:46.334Z,1012.31
2017-01-28T12:50:56.649Z,1012.32
2017-01-28T12:52:06.905Z,1012.28
2017-01-28T12:53:17.804Z,1012.26
2017-01-28T12:54:28.475Z,1012.27
2017-01-28T12:55:39.120Z,1012.25
2017-01-28T12:56:49.784Z,1012.2
2017-01-28T12:58:00.062Z,1012.19
2017-01-28T12:59:10.970Z,1012.19
2017-01-28T13:00:21.619Z,1012.13
2017-01-28T13:01:32.282Z,1012.13
2017-01-28T13:02:42.915Z,1012.08
2017-01-28T13:03:53.172Z,1012.1
2017-01-28T13:05:03.684Z,1012.1
2017-01-28T13:06:13.965Z,1012.1
2017-01-28T13:07:24.617Z,1012.13
2017-01-28T13:08:34.891Z,1012.1
2017-01-28T13:09:45.173Z,1012.08
2017-01-28T13:10:56.054Z,1012.11
2017-01-28T13:12:06.327Z,1012.04
2017-01-28T13:13:16.574Z,1012.05
2017-01-28T13:14:26.837Z,1012.07
2017-01-28T13:15:37.478Z,1012.08
2017-01-28T13:16:48.366Z,1012.05
2017-01-28T13:17:58.234Z,1011.99
2017-01-28T13:19:08.870Z,1011.97
2017-01-28T13:20:18.740Z,1012
2017-01-28T13:21:29.011Z,1011.95
2017-01-28T13:22:39.921Z,1012
2017-01-28T13:23:50.595Z,1011.97
2017-01-28T13:25:00.841Z,1011.97
2017-01-28T13:26:11.485Z,1011.94
2017-01-28T13:27:21.748Z,1011.88
2017-01-28T13:28:32.247Z,1011.85
2017-01-28T13:29:42.500Z,1011.85
2017-01-28T13:30:53.160Z,1011.85
2017-01-28T13:32:03.438Z,1011.86
2017-01-28T13:33:13.286Z,1011.86
2017-01-28T13:34:23.781Z,1011.85
2017-01-28T13:35:33.258Z,1011.82
2017-01-28T13:36:43.123Z,1011.82
2017-01-28T13:37:53.376Z,1011.86
2017-01-28T13:39:03.640Z,1011.82
2017-01-28T13:40:14.198Z,1011.89
2017-01-28T13:41:24.463Z,1011.89
2017-01-28T13:42:35.142Z,1011.94
2017-01-28T13:43:45.423Z,1011.87
2017-01-28T13:44:55.737Z,1011.85
2017-01-28T13:46:06.330Z,1011.94
2017-01-28T13:47:16.575Z,1011.87
2017-01-28T13:48:26.827Z,1011.88
2017-01-28T13:49:36.723Z,1011.89
2017-01-28T13:50:47.389Z,1011.85
2017-01-28T13:51:57.900Z,1011.86
2017-01-28T13:53:08.630Z,1011.89
2017-01-28T13:54:18.511Z,1011.82
2017-01-28T13:55:29.152Z,1011.83
2017-01-28T13:56:39.043Z,1011.87
2017-01-28T13:57:50.773Z,1011.9
2017-01-28T13:59:00.645Z,1011.86
2017-01-28T14:00:10.908Z,1011.9
2017-01-28T14:01:20.771Z,1011.9
2017-01-28T14:02:31.043Z,1011.86
2017-01-28T14:03:41.941Z,1011.87
2017-01-28T14:04:52.576Z,1011.85
2017-01-28T14:06:02.442Z,1011.88
2017-01-28T14:07:12.702Z,1011.85
2017-01-28T14:08:22.624Z,1011.85
2017-01-28T14:09:33.587Z,1011.83
2017-01-28T14:10:43.851Z,1011.83
2017-01-28T14:11:53.711Z,1011.81
2017-01-28T14:13:03.996Z,1011.82
2017-01-28T14:14:13.858Z,1011.76